createdAt,value
2018-10-05T00:02:10.439Z,91.34
2018-10-05T00:04:38.965Z,91.35
2018-10-05T00:07:07.768Z,91.77
2018-10-05T00:09:36.651Z,91.18
2018-10-05T00:12:06.129Z,91.89
2018-10-05T00:14:35.646Z,91.92
2018-10-05T00:17:05.812Z,92.10
2018-10-05T00:19:34.373Z,91.88
2018-10-05T00:22:04.463Z,92.22
2018-10-05T00:24:32.999Z,92.22
2018-10-05T00:27:03.267Z,92.49
2018-10-05T00:29:32.185Z,92.08
2018-10-05T00:32:00.686Z,92.27
2018-10-05T00:34:29.289Z,92.78
2018-10-05T00:36:58.102Z,93.04
2018-10-05T00:39:26.621Z,93.48
2018-10-05T00:41:55.134Z,93.27
2018-10-05T00:44:23.677Z,93.69
2018-10-05T00:46:52.190Z,93.15
2018-10-05T00:49:22.308Z,93.61
2018-10-05T00:51:51.987Z,93.21
2018-10-05T00:54:20.496Z,94.25
2018-10-05T00:56:49.083Z,94.52
2018-10-05T00:59:17.698Z,94.23
2018-10-05T01:01:46.622Z,94.15
2018-10-05T01:04:15.029Z,94.53
2018-10-05T01:06:43.510Z,93.81
2018-10-05T01:09:12.034Z,94.83
2018-10-05T01:11:40.553Z,94.77
2018-10-05T01:14:09.431Z,94.33
2018-10-05T01:16:37.933Z,94.09
2018-10-05T01:19:06.458Z,94.27
2018-10-05T01:21:35.136Z,94.03
2018-10-05T01:24:05.465Z,94.57
2018-10-05T01:26:34.092Z,94.22
2018-10-05T01:29:03.703Z,94.60
2018-10-05T01:31:32.287Z,94.47
2018-10-05T01:34:00.843Z,94.33
2018-10-05T01:36:35.984Z,94.32
2018-10-05T01:39:06.034Z,94.84
2018-10-05T01:41:34.647Z,94.14
2018-10-05T01:44:05.249Z,94.86
2018-10-05T01:46:33.858Z,94.65
2018-10-05T01:49:03.950Z,94.58
2018-10-05T01:51:37.723Z,94.58
2018-10-05T01:54:07.436Z,95.02
2018-10-05T01:56:36.526Z,94.89
2018-10-05T01:59:06.462Z,95.75
2018-10-05T02:01:35.416Z,95.51
2018-10-05T02:04:05.181Z,95.89
2018-10-05T02:06:33.799Z,96.21
2018-10-05T02:09:04.665Z,95.45
2018-10-05T02:11:33.205Z,95.16
2018-10-05T02:14:05.669Z,95.47
2018-10-05T02:16:34.207Z,95.73
2018-10-05T02:19:05.971Z,95.67
2018-10-05T02:21:34.595Z,95.08
2018-10-05T02:24:04.818Z,95.51
2018-10-05T02:26:33.678Z,95.32
2018-10-05T02:29:04.048Z,95.37
2018-10-05T02:31:33.246Z,95.63
2018-10-05T02:34:03.517Z,95.61
2018-10-05T02:36:32.055Z,95.60
2018-10-05T02:39:00.544Z,95.39
2018-10-05T02:41:29.126Z,95.81
2018-10-05T02:43:57.596Z,95.95
2018-10-05T02:46:26.141Z,95.47
2018-10-05T02:48:54.682Z,95.58
2018-10-05T02:51:23.180Z,95.56
2018-10-05T02:53:51.742Z,95.08
2018-10-05T02:56:20.384Z,95.03
2018-10-05T02:58:48.902Z,95.59
2018-10-05T03:01:30.325Z,95.94
2018-10-05T03:03:59.278Z,95.75
2018-10-05T03:06:27.792Z,96.26
2018-10-05T03:08:56.493Z,95.59
2018-10-05T03:11:25.365Z,95.44
2018-10-05T03:13:53.907Z,95.85
2018-10-05T03:16:22.533Z,96.07
2018-10-05T03:18:51.417Z,95.95
2018-10-05T03:21:19.896Z,95.90
2018-10-05T03:23:48.428Z,95.87
2018-10-05T03:26:16.953Z,95.99
2018-10-05T03:28:45.482Z,95.58
2018-10-05T03:31:13.987Z,95.81
2018-10-05T03:33:42.503Z,95.72
2018-10-05T03:36:11.068Z,95.62
2018-10-05T03:38:39.600Z,95.87
2018-10-05T03:41:08.279Z,95.67
2018-10-05T03:43:36.881Z,96.12
2018-10-05T03:46:05.479Z,95.95
2018-10-05T03:48:34.064Z,95.71
2018-10-05T03:51:04.043Z,95.87
2018-10-05T03:53:32.555Z,96.45
2018-10-05T03:56:03.227Z,95.77
2018-10-05T03:58:32.140Z,96.43
2018-10-05T04:01:00.630Z,96.21
2018-10-05T04:03:29.178Z,96.13
2018-10-05T04:05:57.695Z,96.08
2018-10-05T04:08:26.566Z,95.81
2018-10-05T04:10:55.344Z,96.15
2018-10-05T04:13:23.835Z,96.03
2018-10-05T04:15:52.573Z,95.54
2018-10-05T04:18:21.073Z,95.93
2018-10-05T04:20:49.697Z,96.50
2018-10-05T04:23:18.169Z,96.54
2018-10-05T04:25:46.689Z,96.37
2018-10-05T04:28:15.334Z,96.30
2018-10-05T04:30:43.863Z,95.90
2018-10-05T04:33:12.359Z,96.51
2018-10-05T04:35:41.265Z,96.24
2018-10-05T04:38:10.076Z,96.19
2018-10-05T04:40:38.632Z,96.80
2018-10-05T04:43:07.727Z,96.41
2018-10-05T04:45:36.302Z,96.02
2018-10-05T04:48:05.148Z,96.27
2018-10-05T04:50:33.681Z,96.30
2018-10-05T04:53:03.711Z,96.43
2018-10-05T04:55:33.682Z,96.75
2018-10-05T04:58:04.149Z,96.55
2018-10-05T05:00:32.644Z,96.75
2018-10-05T05:03:02.787Z,96.53
2018-10-05T05:05:31.517Z,96.64
2018-10-05T05:08:00.466Z,96.72
2018-10-05T05:10:28.990Z,96.89
2018-10-05T05:12:57.794Z,96.72
2018-10-05T05:15:26.313Z,96.57
2018-10-05T05:17:54.890Z,96.60
2018-10-05T05:20:23.944Z,97.11
2018-10-05T05:22:52.729Z,97.39
2018-10-05T05:25:21.262Z,97.15
2018-10-05T05:27:50.300Z,97.15
2018-10-05T05:30:18.814Z,96.80
2018-10-05T05:32:47.642Z,97.43
2018-10-05T05:35:16.129Z,97.32
2018-10-05T05:37:44.630Z,97.19
2018-10-05T05:40:13.164Z,97.36
2018-10-05T05:42:41.664Z,97.26
2018-10-05T05:45:10.199Z,97.46
2018-10-05T05:47:38.827Z,97.71
2018-10-05T05:50:07.355Z,97.77
2018-10-05T05:52:35.878Z,97.68
2018-10-05T05:55:05.148Z,97.87
2018-10-05T05:57:33.784Z,97.40
2018-10-05T06:00:05.048Z,97.68
2018-10-05T06:02:33.557Z,97.97
2018-10-05T06:05:03.765Z,97.51
2018-10-05T06:07:32.277Z,97.47
2018-10-05T06:10:00.949Z,98.00
2018-10-05T06:12:29.477Z,97.80
2018-10-05T06:14:58.154Z,98.00
2018-10-05T06:17:26.651Z,97.74
2018-10-05T06:19:55.202Z,97.75
2018-10-05T06:22:23.867Z,97.38
2018-10-05T06:24:52.306Z,97.65
2018-10-05T06:27:20.861Z,96.50
2018-10-05T06:29:49.658Z,95.96
2018-10-05T06:32:18.201Z,95.54
2018-10-05T06:34:46.694Z,95.21
2018-10-05T06:37:15.322Z,95.32
2018-10-05T06:39:43.865Z,94.97
2018-10-05T06:42:12.575Z,94.57
2018-10-05T06:44:40.987Z,94.74
2018-10-05T06:47:09.772Z,94.46
2018-10-05T06:49:38.422Z,93.94
2018-10-05T06:52:07.315Z,93.46
2018-10-05T06:54:36.022Z,92.66
2018-10-05T06:57:05.281Z,92.32
2018-10-05T06:59:34.066Z,92.43
2018-10-05T07:02:03.811Z,92.49
2018-10-05T07:04:32.375Z,91.47
2018-10-05T07:07:00.943Z,92.65
2018-10-05T07:09:29.529Z,92.20
2018-10-05T07:11:58.236Z,91.65
2018-10-05T07:14:26.804Z,90.65
2018-10-05T07:16:55.324Z,89.88
2018-10-05T07:19:24.014Z,89.80
2018-10-05T07:21:53.755Z,89.53
2018-10-05T07:24:22.411Z,89.72
2018-10-05T07:26:51.053Z,89.36
2018-10-05T07:29:19.578Z,88.95
2018-10-05T07:31:48.109Z,88.88
2018-10-05T07:34:16.674Z,88.39
2018-10-05T07:36:45.240Z,87.60
2018-10-05T07:39:14.061Z,87.15
2018-10-05T07:41:43.142Z,86.49
2018-10-05T07:44:11.678Z,87.01
2018-10-05T07:46:40.208Z,86.77
2018-10-05T07:49:08.765Z,86.66
2018-10-05T07:51:37.502Z,86.68
2018-10-05T07:54:05.963Z,85.61
2018-10-05T07:56:34.553Z,85.61
2018-10-05T07:59:04.593Z,85.28
2018-10-05T08:01:33.179Z,85.17
2018-10-05T08:04:03.194Z,84.59
2018-10-05T08:06:32.699Z,84.21
2018-10-05T08:09:03.104Z,83.73
2018-10-05T08:11:31.614Z,83.61
2018-10-05T08:14:00.104Z,83.72
2018-10-05T08:16:28.649Z,83.33
2018-10-05T08:18:57.130Z,83.83
2018-10-05T08:21:25.705Z,82.65
2018-10-05T08:23:54.258Z,80.97
2018-10-05T08:26:23.039Z,79.26
2018-10-05T08:28:51.557Z,79.26
2018-10-05T08:31:20.210Z,79.20
2018-10-05T08:33:48.754Z,78.58
2018-10-05T08:36:17.247Z,77.98
2018-10-05T08:38:45.753Z,76.72
2018-10-05T08:41:14.502Z,75.78
2018-10-05T08:43:43.007Z,76.23
2018-10-05T08:46:11.545Z,74.93
2018-10-05T08:48:40.210Z,75.80
2018-10-05T08:51:08.804Z,73.89
2018-10-05T08:53:37.294Z,74.43
2018-10-05T08:56:05.811Z,72.82
2018-10-05T08:58:34.392Z,70.94
2018-10-05T09:01:04.487Z,71.67
2018-10-05T09:03:33.057Z,71.72
2018-10-05T09:06:03.095Z,69.91
2018-10-05T09:08:31.612Z,70.34
2018-10-05T09:11:00.113Z,68.50
2018-10-05T09:13:28.722Z,67.80
2018-10-05T09:15:57.242Z,68.88
2018-10-05T09:18:25.739Z,67.80
2018-10-05T09:20:54.445Z,67.56
2018-10-05T09:23:22.987Z,69.04
2018-10-05T09:25:51.484Z,68.46
2018-10-05T09:28:19.969Z,68.77
2018-10-05T09:30:48.539Z,67.68
2018-10-05T09:33:17.044Z,66.85
2018-10-05T09:35:45.790Z,67.66
2018-10-05T09:38:14.283Z,66.96
2018-10-05T09:40:42.907Z,66.23
2018-10-05T09:43:11.501Z,68.06
2018-10-05T09:45:40.022Z,67.47
2018-10-05T09:48:08.617Z,66.93
2018-10-05T09:50:37.569Z,66.68
2018-10-05T09:53:06.094Z,66.78
2018-10-05T09:55:34.625Z,66.21
2018-10-05T09:58:04.465Z,66.25
2018-10-05T10:00:38.185Z,65.11
2018-10-05T10:03:12.836Z,65.26
2018-10-05T10:05:41.392Z,64.25
2018-10-05T10:08:10.308Z,64.11
2018-10-05T10:10:39.027Z,61.99
2018-10-05T10:13:07.730Z,61.63
2018-10-05T10:15:36.261Z,61.41
2018-10-05T10:18:05.894Z,60.96
2018-10-05T10:20:34.704Z,61.44
2018-10-05T10:23:04.453Z,59.87
2018-10-05T10:25:32.951Z,61.85
2018-10-05T10:28:02.455Z,60.88
2018-10-05T10:30:31.399Z,62.31
2018-10-05T10:32:59.943Z,58.49
2018-10-05T10:35:28.455Z,58.55
2018-10-05T10:37:57.061Z,59.56
2018-10-05T10:40:25.685Z,58.02
2018-10-05T10:42:54.168Z,59.71
2018-10-05T10:45:22.681Z,61.17
2018-10-05T10:47:51.229Z,60.46
2018-10-05T10:50:19.781Z,58.99
2018-10-05T10:52:48.298Z,57.32
2018-10-05T10:55:16.924Z,56.63
2018-10-05T10:57:45.483Z,57.51
2018-10-05T11:00:14.427Z,59.16
2018-10-05T11:02:42.968Z,56.67
2018-10-05T11:05:11.551Z,56.48
2018-10-05T11:07:40.186Z,56.99
2018-10-05T11:10:08.728Z,57.71
2018-10-05T11:12:37.216Z,55.45
2018-10-05T11:15:05.993Z,55.65
2018-10-05T11:17:34.525Z,56.23
2018-10-05T11:20:05.006Z,52.86
2018-10-05T11:22:33.600Z,53.47
2018-10-05T11:25:04.090Z,52.26
2018-10-05T11:27:32.939Z,53.46
2018-10-05T11:30:03.665Z,53.92
2018-10-05T11:32:32.160Z,52.80
2018-10-05T11:35:00.823Z,51.60
2018-10-05T11:37:29.301Z,51.18
2018-10-05T11:39:57.787Z,52.01
2018-10-05T11:42:26.664Z,51.63
2018-10-05T11:44:55.163Z,50.89
2018-10-05T11:47:23.650Z,50.81
2018-10-05T11:49:52.206Z,50.08
2018-10-05T11:52:20.745Z,49.92
2018-10-05T11:54:49.256Z,49.46
2018-10-05T11:57:17.843Z,50.11
2018-10-05T11:59:46.405Z,50.00
2018-10-05T12:02:14.954Z,49.32
2018-10-05T12:04:43.508Z,49.46
2018-10-05T12:07:12.293Z,44.75
2018-10-05T12:09:40.778Z,41.77
2018-10-05T12:12:09.369Z,42.63
2018-10-05T12:14:38.171Z,44.50
2018-10-05T12:17:06.702Z,40.80
2018-10-05T12:19:35.239Z,40.19
2018-10-05T12:22:05.650Z,38.78
2018-10-05T12:24:34.220Z,38.66
2018-10-05T12:27:04.770Z,37.73
2018-10-05T12:29:33.292Z,35.43
2018-10-05T12:32:03.521Z,36.67
2018-10-05T12:34:32.081Z,39.24
2018-10-05T12:37:00.667Z,42.83
2018-10-05T12:39:29.469Z,40.16
2018-10-05T12:41:58.021Z,36.99
2018-10-05T12:44:26.626Z,35.31
2018-10-05T12:46:55.213Z,35.23
2018-10-05T12:49:23.773Z,37.76
2018-10-05T12:51:52.363Z,40.57
2018-10-05T12:54:21.013Z,38.44
2018-10-05T12:56:49.978Z,38.53
2018-10-05T12:59:18.487Z,37.55
2018-10-05T13:01:47.061Z,33.26
2018-10-05T13:04:15.621Z,35.71
2018-10-05T13:06:44.165Z,40.88
2018-10-05T13:09:12.721Z,37.87
2018-10-05T13:11:41.266Z,40.72
2018-10-05T13:14:09.936Z,40.86
2018-10-05T13:16:38.483Z,42.57
2018-10-05T13:19:07.301Z,37.45
2018-10-05T13:21:36.501Z,35.47
2018-10-05T13:24:05.561Z,33.01
2018-10-05T13:26:34.572Z,34.02
2018-10-05T13:29:04.667Z,32.77
2018-10-05T13:31:33.781Z,33.10
2018-10-05T13:34:05.029Z,33.04
2018-10-05T13:36:33.542Z,36.67
2018-10-05T13:39:04.942Z,34.50
2018-10-05T13:41:33.482Z,37.58
2018-10-05T13:44:03.144Z,39.63
2018-10-05T13:46:32.474Z,40.13
2018-10-05T13:49:03.818Z,41.52
2018-10-05T13:51:35.475Z,39.22
2018-10-05T13:54:06.487Z,41.15
2018-10-05T13:56:35.373Z,40.68
2018-10-05T13:59:05.762Z,40.40
2018-10-05T14:01:34.662Z,40.42
2018-10-05T14:04:06.035Z,36.18
2018-10-05T14:06:34.654Z,38.43
2018-10-05T14:09:07.007Z,38.18
2018-10-05T14:11:35.736Z,36.92
2018-10-05T14:14:08.699Z,34.33
2018-10-05T14:16:37.249Z,33.22
2018-10-05T14:19:06.578Z,36.30
2018-10-05T14:21:35.253Z,33.84
2018-10-05T14:24:05.431Z,35.82
2018-10-05T14:26:34.375Z,33.14
2018-10-05T14:29:04.895Z,35.21
2018-10-05T14:31:33.447Z,32.98
2018-10-05T14:34:03.854Z,35.83
2018-10-05T14:36:32.401Z,33.55
2018-10-05T14:39:00.993Z,35.59
2018-10-05T14:41:29.570Z,36.64
2018-10-05T14:43:58.095Z,37.36
2018-10-05T14:46:26.619Z,35.83
2018-10-05T14:48:55.169Z,32.15
2018-10-05T14:51:23.742Z,35.76
2018-10-05T14:53:52.250Z,37.31
2018-10-05T14:56:20.804Z,38.57
2018-10-05T14:58:49.336Z,38.14
2018-10-05T15:01:18.021Z,39.83
2018-10-05T15:03:46.796Z,37.68
2018-10-05T15:06:15.389Z,37.22
2018-10-05T15:08:43.968Z,41.41
2018-10-05T15:11:12.526Z,42.37
2018-10-05T15:13:41.063Z,43.59
2018-10-05T15:16:09.721Z,42.16
2018-10-05T15:18:38.222Z,44.80
2018-10-05T15:21:06.859Z,44.62
2018-10-05T15:23:35.436Z,45.48
2018-10-05T15:26:05.640Z,45.85
2018-10-05T15:28:34.615Z,46.61
2018-10-05T15:31:04.984Z,45.02
2018-10-05T15:33:33.536Z,46.19
2018-10-05T15:36:04.628Z,45.93
2018-10-05T15:38:33.146Z,45.23
2018-10-05T15:41:03.021Z,45.53
2018-10-05T15:43:31.601Z,45.95
2018-10-05T15:46:07.265Z,47.26
2018-10-05T15:48:36.061Z,47.09
2018-10-05T15:51:06.399Z,47.96
2018-10-05T15:53:35.367Z,47.15
2018-10-05T15:56:07.842Z,48.01
2018-10-05T15:58:36.365Z,47.43
2018-10-05T16:01:05.125Z,48.77
2018-10-05T16:03:33.647Z,49.90
2018-10-05T16:06:04.183Z,50.56
2018-10-05T16:08:32.754Z,50.03
2018-10-05T16:11:02.815Z,50.30
2018-10-05T16:13:31.384Z,50.71
2018-10-05T16:15:59.904Z,51.84
2018-10-05T16:18:28.511Z,50.31
2018-10-05T16:20:57.101Z,49.23
2018-10-05T16:23:25.633Z,48.98
2018-10-05T16:25:54.270Z,48.58
2018-10-05T16:28:22.832Z,48.03
2018-10-05T16:30:51.435Z,50.11
2018-10-05T16:33:19.994Z,50.91
2018-10-05T16:35:48.508Z,52.51
2018-10-05T16:38:17.110Z,53.61
2018-10-05T16:40:45.636Z,54.90
2018-10-05T16:43:14.150Z,56.30
2018-10-05T16:45:42.666Z,57.77
2018-10-05T16:48:12.052Z,59.32
2018-10-05T16:50:40.589Z,59.78
2018-10-05T16:53:09.171Z,61.50
2018-10-05T16:55:37.659Z,62.54
2018-10-05T16:58:06.764Z,63.98
2018-10-05T17:00:35.327Z,65.01
2018-10-05T17:03:06.279Z,65.78
2018-10-05T17:05:34.923Z,66.33
2018-10-05T17:08:05.303Z,67.94
2018-10-05T17:10:33.967Z,69.48
2018-10-05T17:13:04.917Z,70.03
2018-10-05T17:15:33.434Z,70.30
2018-10-05T17:18:05.525Z,71.62
2018-10-05T17:20:34.866Z,72.80
2018-10-05T17:23:05.366Z,73.29
2018-10-05T17:25:33.929Z,74.17
2018-10-05T17:28:03.895Z,74.24
2018-10-05T17:30:32.492Z,75.08
2018-10-05T17:33:02.938Z,75.87
2018-10-05T17:35:31.481Z,76.02
2018-10-05T17:38:00.009Z,76.78
2018-10-05T17:40:28.524Z,76.85
2018-10-05T17:42:57.140Z,77.27
2018-10-05T17:45:25.629Z,80.13
2018-10-05T17:47:54.185Z,79.61
2018-10-05T17:50:22.803Z,80.12
2018-10-05T17:52:51.705Z,80.15
2018-10-05T17:55:20.605Z,80.87
2018-10-05T17:57:49.093Z,80.73
2018-10-05T18:00:17.616Z,81.65
2018-10-05T18:02:46.952Z,82.80
2018-10-05T18:05:15.495Z,82.75
2018-10-05T18:07:43.997Z,82.69
2018-10-05T18:10:12.624Z,82.84
2018-10-05T18:12:41.150Z,82.94
2018-10-05T18:15:09.873Z,83.50
2018-10-05T18:17:38.401Z,83.93
2018-10-05T18:20:07.289Z,84.79
2018-10-05T18:22:35.859Z,84.53
2018-10-05T18:25:05.351Z,84.05
2018-10-05T18:27:33.885Z,84.64
2018-10-05T18:30:05.003Z,84.82
2018-10-05T18:32:33.549Z,85.04
2018-10-05T18:35:03.971Z,84.83
2018-10-05T18:37:32.548Z,84.81
2018-10-05T18:40:02.665Z,85.53
2018-10-05T18:42:31.316Z,86.07
2018-10-05T18:44:59.853Z,85.97
2018-10-05T18:47:28.651Z,87.03
2018-10-05T18:49:57.168Z,86.99
2018-10-05T18:52:25.701Z,87.65
2018-10-05T18:54:54.570Z,87.76
2018-10-05T18:57:24.040Z,88.72
2018-10-05T18:59:52.624Z,88.58
2018-10-05T19:02:21.540Z,88.41
2018-10-05T19:04:50.466Z,88.30
2018-10-05T19:07:19.074Z,89.45
2018-10-05T19:09:47.970Z,89.45
2018-10-05T19:12:16.515Z,89.79
2018-10-05T19:14:45.155Z,89.17
2018-10-05T19:17:13.705Z,90.20
2018-10-05T19:19:42.241Z,90.14
2018-10-05T19:22:12.014Z,89.49
2018-10-05T19:24:40.540Z,90.30
2018-10-05T19:27:09.137Z,90.39
2018-10-05T19:29:37.742Z,90.10
2018-10-05T19:32:06.425Z,89.04
2018-10-05T19:34:34.975Z,89.09
2018-10-05T19:37:05.186Z,89.61
2018-10-05T19:39:33.740Z,88.76
2018-10-05T19:42:04.194Z,88.79
2018-10-05T19:44:32.737Z,89.05
2018-10-05T19:47:02.479Z,89.44
2018-10-05T19:49:31.068Z,89.33
2018-10-05T19:51:59.659Z,89.77
2018-10-05T19:54:28.284Z,89.90
2018-10-05T19:56:56.872Z,90.16
2018-10-05T19:59:25.425Z,90.68
2018-10-05T20:01:54.025Z,90.78
2018-10-05T20:04:22.664Z,90.94
2018-10-05T20:06:51.464Z,91.94
2018-10-05T20:09:20.016Z,91.66
2018-10-05T20:11:48.634Z,91.63
2018-10-05T20:14:17.420Z,90.96
2018-10-05T20:16:46.090Z,91.26
2018-10-05T20:19:14.878Z,91.52
2018-10-05T20:21:43.439Z,91.24
2018-10-05T20:24:12.056Z,91.66
2018-10-05T20:26:40.835Z,91.59
2018-10-05T20:29:09.452Z,91.41
2018-10-05T20:31:38.000Z,92.42
2018-10-05T20:34:08.817Z,92.05
2018-10-05T20:36:37.645Z,92.38
2018-10-05T20:39:07.240Z,92.59
2018-10-05T20:41:36.649Z,92.62
2018-10-05T20:44:05.671Z,93.10
2018-10-05T20:46:35.592Z,93.02
2018-10-05T20:49:05.850Z,92.19
2018-10-05T20:51:34.397Z,92.77
2018-10-05T20:54:05.537Z,92.76
2018-10-05T20:56:34.071Z,92.76
2018-10-05T20:59:04.062Z,93.17
2018-10-05T21:01:32.680Z,92.64
2018-10-05T21:04:02.840Z,92.87
2018-10-05T21:06:31.359Z,93.08
2018-10-05T21:08:59.905Z,93.27
2018-10-05T21:11:28.895Z,92.57
2018-10-05T21:13:57.786Z,93.04
2018-10-05T21:16:26.309Z,92.81
2018-10-05T21:18:55.027Z,92.26
2018-10-05T21:21:23.539Z,93.31
2018-10-05T21:23:52.067Z,93.51
2018-10-05T21:26:20.646Z,94.18
2018-10-05T21:28:49.159Z,94.24
2018-10-05T21:31:17.704Z,93.62
2018-10-05T21:33:46.245Z,93.32
2018-10-05T21:36:14.843Z,94.33
2018-10-05T21:38:43.399Z,93.47
2018-10-05T21:41:12.162Z,94.44
2018-10-05T21:43:40.680Z,93.78
2018-10-05T21:46:09.312Z,93.89
2018-10-05T21:48:38.098Z,94.18
2018-10-05T21:51:06.657Z,93.62
2018-10-05T21:53:35.159Z,93.92
2018-10-05T21:56:04.857Z,93.30
2018-10-05T21:58:34.935Z,93.41
2018-10-05T22:01:05.208Z,93.43
2018-10-05T22:03:33.749Z,93.58
2018-10-05T22:06:03.678Z,94.07
2018-10-05T22:08:32.262Z,94.31
2018-10-05T22:11:00.793Z,93.92
2018-10-05T22:13:29.322Z,94.31
2018-10-05T22:15:57.861Z,93.75
2018-10-05T22:18:26.642Z,94.31
2018-10-05T22:20:55.170Z,94.58
2018-10-05T22:23:23.830Z,94.33
2018-10-05T22:25:52.394Z,94.70
2018-10-05T22:28:20.931Z,94.63
2018-10-05T22:30:49.478Z,94.04
2018-10-05T22:33:17.969Z,93.84
2018-10-05T22:35:46.513Z,93.97
2018-10-05T22:38:15.012Z,95.09
2018-10-05T22:40:43.985Z,95.13
2018-10-05T22:43:12.557Z,94.48
2018-10-05T22:45:41.072Z,95.19
2018-10-05T22:48:10.233Z,94.14
2018-10-05T22:50:39.280Z,94.13
2018-10-05T22:53:07.789Z,93.42
2018-10-05T22:55:36.383Z,94.08
2018-10-05T22:58:05.999Z,94.17
2018-10-05T23:00:34.586Z,94.77
2018-10-05T23:03:04.515Z,94.80
2018-10-05T23:05:33.080Z,95.17
2018-10-05T23:08:03.376Z,94.51
2018-10-05T23:10:31.952Z,94.41
2018-10-05T23:13:00.494Z,94.03
2018-10-05T23:15:29.044Z,94.15
2018-10-05T23:17:57.573Z,94.91
2018-10-05T23:20:26.156Z,94.69
2018-10-05T23:22:54.659Z,94.73
2018-10-05T23:25:23.188Z,94.83
2018-10-05T23:27:51.731Z,94.90
2018-10-05T23:30:20.524Z,94.77
2018-10-05T23:32:49.023Z,95.13
2018-10-05T23:35:18.106Z,94.84
2018-10-05T23:37:46.688Z,95.15
2018-10-05T23:40:15.169Z,94.68
2018-10-05T23:42:43.646Z,94.29
2018-10-05T23:45:12.301Z,94.57
2018-10-05T23:47:40.915Z,94.81
2018-10-05T23:50:09.436Z,94.54
2018-10-05T23:52:48.610Z,94.84
2018-10-05T23:55:17.180Z,95.05
2018-10-05T23:57:45.872Z,94.52
